Chama, Colorado
Current Conditions -  °F | °C
As of 11:51 AM on Thursday 30 Oct 2014 (Local Time) from KVTP Reporting Station
Clear Clear  
Wind Chill: 45°   Ceiling: Unl
Heat Index: 45°   Visibility: 10mi
Dew Point: 19°   Wind: 3mph
Humidity: 37%   Direction: 20°NNE
Pressure: 30.52"   Gusts: NA
Location:  37.16°N, 105.38°W
Report Text: KVTP 301751Z AUTO 02003KT 10SM CLR 07/M07 A3052 RMK AO2
Loading
Personal Weather Stations






























Interactive Weather Map
Tropical Storm Tracking
New forecast layout! Learn more

10-Day Weather Forecast

Advertisements
Track Severe Weather on mobile